createdAt,value
2022-09-23T00:02:18.304Z,4.63
2022-09-23T00:04:49.771Z,4.63
2022-09-23T00:07:20.182Z,4.58
2022-09-23T00:09:51.551Z,4.55
2022-09-23T00:12:21.482Z,4.58
2022-09-23T00:14:51.401Z,4.54
2022-09-23T00:17:21.502Z,4.48
2022-09-23T00:19:54.472Z,4.54
2022-09-23T00:22:24.511Z,4.49
2022-09-23T00:24:55.048Z,4.52
2022-09-23T00:27:24.972Z,4.48
2022-09-23T00:29:55.089Z,4.43
2022-09-23T00:32:25.320Z,4.40
2022-09-23T00:34:57.041Z,4.49
2022-09-23T00:37:27.364Z,4.43
2022-09-23T00:39:57.471Z,4.38
2022-09-23T00:42:27.450Z,4.35
2022-09-23T00:44:59.031Z,4.28
2022-09-23T00:47:35.871Z,4.24
2022-09-23T00:50:12.141Z,4.19
2022-09-23T00:52:42.419Z,4.25
2022-09-23T00:55:17.701Z,4.28
2022-09-23T00:57:49.211Z,4.24
2022-09-23T01:00:19.643Z,4.27
2022-09-23T01:02:49.782Z,4.26
2022-09-23T01:05:23.431Z,4.24
2022-09-23T01:07:54.201Z,4.23
2022-09-23T01:10:25.753Z,4.18
2022-09-23T01:13:16.294Z,4.21
2022-09-23T01:15:52.381Z,4.12
2022-09-23T01:18:33.822Z,4.04
2022-09-23T01:21:18.871Z,4.07
2022-09-23T01:24:19.241Z,4.05
2022-09-23T01:27:07.503Z,4.07
2022-09-23T01:30:11.304Z,3.94
2022-09-23T01:33:01.821Z,3.96
2022-09-23T01:35:42.692Z,3.93
2022-09-23T01:38:33.193Z,3.94
2022-09-23T01:41:13.911Z,3.61
2022-09-23T01:43:56.161Z,3.95
2022-09-23T01:46:31.700Z,3.95
2022-09-23T01:49:09.872Z,3.84
2022-09-23T01:51:43.479Z,3.79
2022-09-23T01:54:19.271Z,3.79
2022-09-23T01:56:52.966Z,3.77
2022-09-23T01:59:30.851Z,3.74
2022-09-23T02:02:05.606Z,3.76
2022-09-23T02:04:45.951Z,3.72
2022-09-23T02:07:23.924Z,3.78
2022-09-23T02:09:58.773Z,3.77
2022-09-23T02:12:31.861Z,3.72
2022-09-23T02:15:05.539Z,3.72
2022-09-23T02:17:40.491Z,3.67
2022-09-23T02:20:15.202Z,3.71
2022-09-23T02:22:56.582Z,3.69
2022-09-23T02:25:34.291Z,3.71
2022-09-23T02:28:12.126Z,3.63
2022-09-23T02:30:52.053Z,3.61
2022-09-23T02:33:26.782Z,3.65
2022-09-23T02:36:03.311Z,3.62
2022-09-23T02:38:38.862Z,3.58
2022-09-23T02:41:16.369Z,3.54
2022-09-23T02:43:51.853Z,3.51
2022-09-23T02:46:23.563Z,3.56
2022-09-23T02:48:55.771Z,3.58
2022-09-23T02:51:28.323Z,3.54
2022-09-23T02:53:59.761Z,3.59
2022-09-23T02:56:30.040Z,3.56
2022-09-23T02:59:00.623Z,3.50
2022-09-23T03:01:41.981Z,3.44
2022-09-23T03:04:15.245Z,3.42
2022-09-23T03:06:59.370Z,3.41
2022-09-23T03:09:35.621Z,3.36
2022-09-23T03:12:14.792Z,3.38
2022-09-23T03:14:54.093Z,3.39
2022-09-23T03:17:31.184Z,3.42
2022-09-23T03:20:07.445Z,3.50
2022-09-23T03:22:44.573Z,3.48
2022-09-23T03:25:17.501Z,3.38
2022-09-23T03:27:47.823Z,3.37
2022-09-23T03:30:22.010Z,3.34
2022-09-23T03:32:53.334Z,3.31
2022-09-23T03:35:25.769Z,3.39
2022-09-23T03:38:03.202Z,3.35
2022-09-23T03:40:38.576Z,3.30
2022-09-23T03:43:08.593Z,3.30
2022-09-23T03:45:39.012Z,3.29
2022-09-23T03:48:08.966Z,3.38
2022-09-23T03:50:39.772Z,3.38
2022-09-23T03:53:14.060Z,3.47
2022-09-23T03:55:45.856Z,3.43
2022-09-23T03:58:17.051Z,3.41
2022-09-23T04:00:47.274Z,3.41
2022-09-23T04:03:17.412Z,3.46
2022-09-23T04:05:48.762Z,3.47
2022-09-23T04:08:20.169Z,3.49
2022-09-23T04:10:54.184Z,3.48
2022-09-23T04:13:25.314Z,3.42
2022-09-23T04:15:55.445Z,3.41
2022-09-23T04:18:25.457Z,3.48
2022-09-23T04:21:00.545Z,3.41
2022-09-23T04:23:32.091Z,3.40
2022-09-23T04:26:02.071Z,3.40
2022-09-23T04:28:32.042Z,3.39
2022-09-23T04:31:06.657Z,3.38
2022-09-23T04:33:37.931Z,3.36
2022-09-23T04:36:08.431Z,3.46
2022-09-23T04:38:40.081Z,3.51
2022-09-23T04:41:11.560Z,3.52
2022-09-23T04:43:42.430Z,3.51
2022-09-23T04:46:14.030Z,3.51
2022-09-23T04:48:45.011Z,3.58
2022-09-23T04:51:17.252Z,3.54
2022-09-23T04:53:51.091Z,3.61
2022-09-23T04:56:23.139Z,3.60
2022-09-23T04:58:54.151Z,3.61
2022-09-23T05:01:27.194Z,3.65
2022-09-23T05:04:02.181Z,3.68
2022-09-23T05:06:33.390Z,3.72
2022-09-23T05:09:08.695Z,3.72
2022-09-23T05:11:38.760Z,3.75
2022-09-23T05:14:09.141Z,3.80
2022-09-23T05:16:39.159Z,3.83
2022-09-23T05:19:09.252Z,3.86
2022-09-23T05:21:39.740Z,3.93
2022-09-23T05:24:11.413Z,3.93
2022-09-23T05:26:42.890Z,3.98
2022-09-23T05:29:13.324Z,4.01
2022-09-23T05:31:43.572Z,4.07
2022-09-23T05:34:13.889Z,4.17
2022-09-23T05:36:44.380Z,4.25
2022-09-23T05:39:15.771Z,4.31
2022-09-23T05:41:46.103Z,4.40
2022-09-23T05:44:17.011Z,4.49
2022-09-23T05:46:47.390Z,4.58
2022-09-23T05:49:17.833Z,4.70
2022-09-23T05:51:48.190Z,4.79
2022-09-23T05:54:19.650Z,4.88
2022-09-23T05:56:50.059Z,4.96
2022-09-23T05:59:20.052Z,5.05
2022-09-23T06:01:52.122Z,5.19
2022-09-23T06:04:26.513Z,5.31
2022-09-23T06:07:03.262Z,5.48
2022-09-23T06:09:36.953Z,5.58
2022-09-23T06:12:08.129Z,5.67
2022-09-23T06:14:38.710Z,5.85
2022-09-23T06:17:08.651Z,6.01
2022-09-23T06:19:38.671Z,6.14
2022-09-23T06:22:08.819Z,6.30
2022-09-23T06:24:40.423Z,6.43
2022-09-23T06:27:12.180Z,6.57
2022-09-23T06:29:42.243Z,6.76
2022-09-23T06:32:13.870Z,6.93
2022-09-23T06:34:52.044Z,7.09
2022-09-23T06:37:23.624Z,7.31
2022-09-23T06:39:55.520Z,7.47
2022-09-23T06:42:25.790Z,7.68
2022-09-23T06:44:57.350Z,7.82
2022-09-23T06:47:27.523Z,8.33
2022-09-23T06:49:57.612Z,9.16
2022-09-23T06:52:28.941Z,9.91
2022-09-23T06:55:01.264Z,10.56
2022-09-23T06:57:33.148Z,10.80
2022-09-23T07:00:04.111Z,11.49
2022-09-23T07:02:34.141Z,11.86
2022-09-23T07:05:04.601Z,11.83
2022-09-23T07:07:37.000Z,12.11
2022-09-23T07:10:09.830Z,12.39
2022-09-23T07:12:40.079Z,12.71
2022-09-23T07:15:11.480Z,12.87
2022-09-23T07:17:44.380Z,13.34
2022-09-23T07:20:15.062Z,13.00
2022-09-23T07:22:45.642Z,12.99
2022-09-23T07:25:17.983Z,13.88
2022-09-23T07:27:48.921Z,14.81
2022-09-23T07:30:25.178Z,14.00
2022-09-23T07:32:55.935Z,14.44
2022-09-23T07:35:28.461Z,14.97
2022-09-23T07:37:58.501Z,15.21
2022-09-23T07:40:30.849Z,15.47
2022-09-23T07:43:01.252Z,14.84
2022-09-23T07:45:32.410Z,14.85
2022-09-23T07:48:03.911Z,15.51
2022-09-23T07:50:34.190Z,15.34
2022-09-23T07:53:05.473Z,15.15
2022-09-23T07:55:37.359Z,15.92
2022-09-23T07:58:07.498Z,15.66
2022-09-23T08:00:38.619Z,15.57
2022-09-23T08:03:12.419Z,15.73
2022-09-23T08:05:42.700Z,16.40
2022-09-23T08:08:14.384Z,15.91
2022-09-23T08:10:46.641Z,15.90
2022-09-23T08:13:17.090Z,15.81
2022-09-23T08:15:55.243Z,15.73
2022-09-23T08:18:25.789Z,15.87
2022-09-23T08:20:56.190Z,16.13
2022-09-23T08:23:27.049Z,16.07
2022-09-23T08:26:02.007Z,16.45
2022-09-23T08:28:33.540Z,16.84
2022-09-23T08:31:04.180Z,16.59
2022-09-23T08:33:34.361Z,17.23
2022-09-23T08:36:05.591Z,17.14
2022-09-23T08:38:36.200Z,17.39
2022-09-23T08:41:15.211Z,17.75
2022-09-23T08:43:54.111Z,17.74
2022-09-23T08:46:27.636Z,18.55
2022-09-23T08:49:00.710Z,18.27
2022-09-23T08:51:36.940Z,17.82
2022-09-23T08:54:08.391Z,17.37
2022-09-23T08:56:41.601Z,17.73
2022-09-23T08:59:17.872Z,18.18
2022-09-23T09:01:51.717Z,18.92
2022-09-23T09:04:28.124Z,17.93
2022-09-23T09:07:31.865Z,17.18
2022-09-23T09:09:58.529Z,17.60
2022-09-23T09:12:41.364Z,18.56
2022-09-23T09:15:16.401Z,16.72
2022-09-23T09:17:59.604Z,17.36
2022-09-23T09:20:40.899Z,17.78
2022-09-23T09:23:22.341Z,16.74
2022-09-23T09:25:54.332Z,16.23
2022-09-23T09:28:32.152Z,17.21
2022-09-23T09:31:04.740Z,16.72
2022-09-23T09:33:46.261Z,17.09
2022-09-23T09:36:30.927Z,16.69
2022-09-23T09:39:01.090Z,16.79
2022-09-23T09:41:32.738Z,17.21
2022-09-23T09:44:11.410Z,17.35
2022-09-23T09:46:57.108Z,16.64
2022-09-23T09:49:40.179Z,16.52
2022-09-23T09:52:21.101Z,15.98
2022-09-23T09:54:52.029Z,15.97
2022-09-23T09:57:35.295Z,15.75
2022-09-23T10:00:42.363Z,15.41
2022-09-23T10:03:33.388Z,15.57
2022-09-23T10:06:17.613Z,15.23
2022-09-23T10:09:06.487Z,15.26
2022-09-23T10:11:36.920Z,15.03
2022-09-23T10:14:12.979Z,14.86
2022-09-23T10:16:44.834Z,14.92
2022-09-23T10:19:24.437Z,14.65
2022-09-23T10:21:58.888Z,14.58
2022-09-23T10:24:32.510Z,14.62
2022-09-23T10:27:07.962Z,14.79
2022-09-23T10:29:41.300Z,14.56
2022-09-23T10:32:28.087Z,14.73
2022-09-23T10:35:03.099Z,14.70
2022-09-23T10:37:38.411Z,14.55
2022-09-23T10:40:33.043Z,14.36
2022-09-23T10:43:41.554Z,14.29
2022-09-23T10:46:41.696Z,14.50
2022-09-23T10:49:56.634Z,14.49
2022-09-23T10:52:56.629Z,14.46
2022-09-23T10:55:40.600Z,14.41
2022-09-23T10:59:12.372Z,14.34
2022-09-23T11:01:49.443Z,14.40
2022-09-23T11:04:33.754Z,14.26
2022-09-23T11:07:14.515Z,14.35
2022-09-23T11:10:14.548Z,14.35
2022-09-23T11:13:03.658Z,14.45
2022-09-23T11:15:44.259Z,14.40
2022-09-23T11:18:50.369Z,14.41
2022-09-23T11:21:50.745Z,14.45
2022-09-23T11:24:52.393Z,14.42
2022-09-23T11:27:40.155Z,14.48
2022-09-23T11:30:13.807Z,14.44
2022-09-23T11:33:14.604Z,14.39
2022-09-23T11:35:50.225Z,14.53
2022-09-23T11:38:26.377Z,14.59
2022-09-23T11:41:01.978Z,14.58
2022-09-23T11:43:40.879Z,14.60
2022-09-23T11:46:17.997Z,14.64
2022-09-23T11:48:56.619Z,14.71
2022-09-23T11:51:31.841Z,14.81
2022-09-23T11:54:06.476Z,14.70
2022-09-23T11:56:46.510Z,14.81
2022-09-23T11:59:39.149Z,14.81
2022-09-23T12:02:24.651Z,14.58
2022-09-23T12:05:03.223Z,14.58
2022-09-23T12:07:46.143Z,14.48
2022-09-23T12:10:17.394Z,14.69
2022-09-23T12:13:00.083Z,14.71
2022-09-23T12:15:50.772Z,14.97
2022-09-23T12:18:49.013Z,14.98
2022-09-23T12:21:50.690Z,15.44
2022-09-23T12:24:48.719Z,15.89
2022-09-23T12:27:30.369Z,16.15
2022-09-23T12:30:03.810Z,16.10
2022-09-23T12:32:36.936Z,16.38
2022-09-23T12:35:08.976Z,16.44
2022-09-23T12:37:41.115Z,16.61
2022-09-23T12:40:20.305Z,16.37
2022-09-23T12:42:52.208Z,16.40
2022-09-23T12:45:44.107Z,16.25
2022-09-23T12:48:47.662Z,16.18
2022-09-23T12:51:22.382Z,16.14
2022-09-23T12:54:21.486Z,15.81
2022-09-23T12:57:06.631Z,16.10
2022-09-23T13:00:00.492Z,16.23
2022-09-23T13:02:36.762Z,16.55
2022-09-23T13:05:44.418Z,16.53
2022-09-23T13:08:17.810Z,16.71
2022-09-23T13:10:51.030Z,16.93
2022-09-23T13:13:27.942Z,17.08
2022-09-23T13:16:11.947Z,17.22
2022-09-23T13:19:00.721Z,17.69
2022-09-23T13:22:12.950Z,17.75
2022-09-23T13:24:54.206Z,17.59
2022-09-23T13:27:32.510Z,17.21
2022-09-23T13:30:06.293Z,16.87
2022-09-23T13:32:41.240Z,16.59
2022-09-23T13:35:23.021Z,16.42
2022-09-23T13:37:53.890Z,15.87
2022-09-23T13:40:28.067Z,15.72
2022-09-23T13:43:03.561Z,15.64
2022-09-23T13:45:38.307Z,15.49
2022-09-23T13:48:13.116Z,15.52
2022-09-23T13:50:49.527Z,15.25
2022-09-23T13:53:26.920Z,15.20
2022-09-23T13:56:08.093Z,15.11
2022-09-23T13:58:38.840Z,14.82
2022-09-23T14:01:10.638Z,14.75
2022-09-23T14:03:41.515Z,14.79
2022-09-23T14:06:15.054Z,14.70
2022-09-23T14:08:48.516Z,14.63
2022-09-23T14:11:22.005Z,14.73
2022-09-23T14:13:54.635Z,14.52
2022-09-23T14:16:27.157Z,14.35
2022-09-23T14:19:00.969Z,14.23
2022-09-23T14:21:35.375Z,14.41
2022-09-23T14:24:18.204Z,14.35
2022-09-23T14:26:54.718Z,14.45
2022-09-23T14:29:28.595Z,14.43
2022-09-23T14:32:04.001Z,14.34
2022-09-23T14:34:48.935Z,14.32
2022-09-23T14:37:51.127Z,14.38
2022-09-23T14:40:24.174Z,14.23
2022-09-23T14:43:05.073Z,14.38
2022-09-23T14:45:38.488Z,14.35
2022-09-23T14:48:11.971Z,14.26
2022-09-23T14:50:50.895Z,14.28
2022-09-23T14:53:49.578Z,14.21
2022-09-23T14:56:26.182Z,14.16
2022-09-23T14:59:04.145Z,14.15
2022-09-23T15:01:41.653Z,14.20
2022-09-23T15:04:15.814Z,14.24
2022-09-23T15:06:59.491Z,14.13
2022-09-23T15:09:33.537Z,14.00
2022-09-23T15:12:07.342Z,13.80
2022-09-23T15:14:43.254Z,13.88
2022-09-23T15:17:27.570Z,13.83
2022-09-23T15:20:01.014Z,13.76
2022-09-23T15:22:31.362Z,13.67
2022-09-23T15:25:22.764Z,13.58
2022-09-23T15:28:07.167Z,13.47
2022-09-23T15:30:40.483Z,13.39
2022-09-23T15:33:15.297Z,13.32
2022-09-23T15:35:48.553Z,13.32
2022-09-23T15:38:25.117Z,13.22
2022-09-23T15:40:56.279Z,13.19
2022-09-23T15:43:28.234Z,13.12
2022-09-23T15:46:00.934Z,13.09
2022-09-23T15:48:39.201Z,13.02
2022-09-23T15:51:13.336Z,12.97
2022-09-23T15:53:46.142Z,12.98
2022-09-23T15:56:17.197Z,12.96
2022-09-23T15:58:48.427Z,12.94
2022-09-23T16:01:25.077Z,12.90
2022-09-23T16:03:55.887Z,12.87
2022-09-23T16:06:28.164Z,12.84
2022-09-23T16:08:58.528Z,12.81
2022-09-23T16:11:32.012Z,12.77
2022-09-23T16:14:08.242Z,12.66
2022-09-23T16:16:43.089Z,12.60
2022-09-23T16:19:13.893Z,12.53
2022-09-23T16:21:45.077Z,12.49
2022-09-23T16:24:19.025Z,12.45
2022-09-23T16:26:50.763Z,12.46
2022-09-23T16:29:22.166Z,12.46
2022-09-23T16:31:53.908Z,12.45
2022-09-23T16:34:25.293Z,12.44
2022-09-23T16:36:57.390Z,12.43
2022-09-23T16:39:28.281Z,12.38
2022-09-23T16:41:59.238Z,12.32
2022-09-23T16:44:32.262Z,12.24
2022-09-23T16:47:05.911Z,12.19
2022-09-23T16:49:36.416Z,12.19
2022-09-23T16:52:10.285Z,12.13
2022-09-23T16:54:44.729Z,12.01
2022-09-23T16:57:19.200Z,11.97
2022-09-23T17:00:09.450Z,11.95
2022-09-23T17:02:58.548Z,12.01
2022-09-23T17:05:32.116Z,11.89
2022-09-23T17:08:02.880Z,11.78
2022-09-23T17:10:33.542Z,11.67
2022-09-23T17:13:03.752Z,11.55
2022-09-23T17:15:36.509Z,11.47
2022-09-23T17:18:09.378Z,11.27
2022-09-23T17:20:39.720Z,11.13
2022-09-23T17:23:09.908Z,10.93
2022-09-23T17:25:40.344Z,10.85
2022-09-23T17:28:10.629Z,10.86
2022-09-23T17:30:41.148Z,10.92
2022-09-23T17:33:12.932Z,10.88
2022-09-23T17:35:43.565Z,10.80
2022-09-23T17:38:13.459Z,10.68
2022-09-23T17:40:50.977Z,10.50
2022-09-23T17:43:25.275Z,10.34
2022-09-23T17:45:56.446Z,10.32
2022-09-23T17:48:29.762Z,10.27
2022-09-23T17:51:02.629Z,10.16
2022-09-23T17:53:34.140Z,10.12
2022-09-23T17:56:06.458Z,10.03
2022-09-23T17:58:38.828Z,9.90
2022-09-23T18:01:12.316Z,9.88
2022-09-23T18:03:44.872Z,9.95
2022-09-23T18:06:17.155Z,9.81
2022-09-23T18:08:49.107Z,9.72
2022-09-23T18:11:21.227Z,9.57
2022-09-23T18:13:54.039Z,9.56
2022-09-23T18:16:26.678Z,9.53
2022-09-23T18:19:05.259Z,9.49
2022-09-23T18:21:41.237Z,9.43
2022-09-23T18:27:02.668Z,9.23
2022-09-23T18:29:36.417Z,9.26
2022-09-23T18:32:08.225Z,9.24
2022-09-23T18:34:43.395Z,9.30
2022-09-23T18:37:15.917Z,9.30
2022-09-23T18:39:48.893Z,9.33
2022-09-23T18:42:19.829Z,9.32
2022-09-23T18:44:54.468Z,9.26
2022-09-23T18:47:38.917Z,9.20
2022-09-23T18:50:31.271Z,9.18
2022-09-23T18:53:01.888Z,9.20
2022-09-23T18:55:36.341Z,9.18
2022-09-23T18:58:07.698Z,9.17
2022-09-23T19:00:38.174Z,9.12
2022-09-23T19:03:08.164Z,9.09
2022-09-23T19:05:39.664Z,9.02
2022-09-23T19:08:09.848Z,9.00
2022-09-23T19:10:39.717Z,8.94
2022-09-23T19:13:09.601Z,8.86
2022-09-23T19:15:41.248Z,8.80
2022-09-23T19:18:11.538Z,8.78
2022-09-23T19:20:51.440Z,8.78
2022-09-23T19:23:22.154Z,8.73
2022-09-23T19:25:52.640Z,8.74
2022-09-23T19:28:22.799Z,8.68
2022-09-23T19:30:53.098Z,8.61
2022-09-23T19:33:23.550Z,8.61
2022-09-23T19:35:55.226Z,8.56
2022-09-23T19:38:25.389Z,8.54
2022-09-23T19:40:56.047Z,8.54
2022-09-23T19:43:26.122Z,8.59
2022-09-23T19:46:10.472Z,8.56
2022-09-23T19:48:40.681Z,8.51
2022-09-23T19:51:13.410Z,8.49
2022-09-23T19:53:45.819Z,8.49
2022-09-23T19:56:18.388Z,8.42
2022-09-23T19:58:51.599Z,8.33
2022-09-23T20:01:22.035Z,8.28
2022-09-23T20:03:53.572Z,8.26
2022-09-23T20:06:25.302Z,8.24
2022-09-23T20:08:57.870Z,8.26
2022-09-23T20:11:28.835Z,8.23
2022-09-23T20:14:01.968Z,8.19
2022-09-23T20:16:37.355Z,8.14
2022-09-23T20:19:07.869Z,8.14
2022-09-23T20:21:39.664Z,8.16
2022-09-23T20:24:12.315Z,8.12
2022-09-23T20:27:14.128Z,8.10
2022-09-23T20:29:44.200Z,8.04
2022-09-23T20:32:14.901Z,7.97
2022-09-23T20:34:46.919Z,7.92
2022-09-23T20:37:20.639Z,7.92
2022-09-23T20:39:51.267Z,7.87
2022-09-23T20:42:22.619Z,7.83
2022-09-23T20:44:52.608Z,7.75
2022-09-23T20:47:25.778Z,7.78
2022-09-23T20:49:55.817Z,7.70
2022-09-23T20:52:27.539Z,7.62
2022-09-23T20:54:57.617Z,7.60
2022-09-23T20:57:28.501Z,7.61
2022-09-23T20:59:58.490Z,7.60
2022-09-23T21:02:28.800Z,7.55
2022-09-23T21:04:58.833Z,7.51
2022-09-23T21:07:31.273Z,7.53
2022-09-23T21:10:02.461Z,7.50
2022-09-23T21:12:32.929Z,7.49
2022-09-23T21:15:03.054Z,7.50
2022-09-23T21:17:33.858Z,7.42
2022-09-23T21:20:04.239Z,7.40
2022-09-23T21:22:36.479Z,7.40
2022-09-23T21:27:59.198Z,7.32
2022-09-23T21:30:29.310Z,7.22
2022-09-23T21:32:59.819Z,7.19
2022-09-23T21:35:30.098Z,7.20
2022-09-23T21:38:03.897Z,7.22
2022-09-23T21:40:51.280Z,7.18
2022-09-23T21:43:21.568Z,7.12
2022-09-23T21:45:57.219Z,7.15
2022-09-23T21:48:28.679Z,7.10
2022-09-23T21:51:00.018Z,7.09
2022-09-23T21:53:32.039Z,7.05
2022-09-23T21:56:07.319Z,7.06
2022-09-23T21:58:39.319Z,7.04
2022-09-23T22:01:10.584Z,7.05
2022-09-23T22:03:40.617Z,7.01
2022-09-23T22:06:12.155Z,6.99
2022-09-23T22:08:45.119Z,7.00
2022-09-23T22:11:30.450Z,6.98
2022-09-23T22:14:02.194Z,6.97
2022-09-23T22:16:32.616Z,6.96
2022-09-23T22:19:05.416Z,6.93
2022-09-23T22:21:37.669Z,6.90
2022-09-23T22:24:11.165Z,6.83
2022-09-23T22:26:43.168Z,6.82
2022-09-23T22:29:32.598Z,6.75
2022-09-23T22:32:20.825Z,6.71
2022-09-23T22:34:52.910Z,6.64
2022-09-23T22:37:26.250Z,6.61
2022-09-23T22:39:57.901Z,6.64
2022-09-23T22:42:27.839Z,6.61
2022-09-23T22:44:58.159Z,6.59
2022-09-23T22:47:28.652Z,6.62
2022-09-23T22:49:59.050Z,6.61
2022-09-23T22:52:29.169Z,6.56
2022-09-23T22:55:00.621Z,6.59
2022-09-23T22:57:31.545Z,6.59
2022-09-23T23:00:01.629Z,6.57
2022-09-23T23:02:31.869Z,6.60
2022-09-23T23:05:02.592Z,6.59
2022-09-23T23:07:35.140Z,6.56
2022-09-23T23:10:07.670Z,6.56
2022-09-23T23:12:37.661Z,6.51
2022-09-23T23:15:09.571Z,6.51
2022-09-23T23:17:40.926Z,6.49
2022-09-23T23:20:11.034Z,6.47
2022-09-23T23:22:40.914Z,6.40
2022-09-23T23:25:12.765Z,6.41
2022-09-23T23:27:43.228Z,6.33
2022-09-23T23:30:14.085Z,6.33
2022-09-23T23:32:44.326Z,6.34
2022-09-23T23:35:14.395Z,6.31
2022-09-23T23:37:44.747Z,6.24
2022-09-23T23:40:16.575Z,6.22
2022-09-23T23:42:46.205Z,6.11
2022-09-23T23:45:16.948Z,6.03
2022-09-23T23:47:46.925Z,6.00
2022-09-23T23:50:18.130Z,6.09
2022-09-23T23:52:48.068Z,6.08
2022-09-23T23:55:19.885Z,6.07
2022-09-23T23:57:52.374Z,5.98
